Time;durP1;ratioP1;P1;durP2;ratioP2;P2;SDS_P1;SDS_P2;PMS_P1;PMS_P2;Temp;Humidity;BMP_temperature;BMP_pressure;BME280_temperature;BME280_humidity;BME280_pressure;Samples;Min_cycle;Max_cycle;Signal;HPM_P1;HPM_P2
2024/04/18 00:01:28;;;;;;;66.80;10.43;;;;;;;;;;5355759;26;20585;-67
2024/04/18 00:03:57;;;;;;;62.30;8.02;;;;;;;;;;5355561;26;20476;-68
2024/04/18 00:06:23;;;;;;;62.33;8.90;;;;;;;;;;5355335;26;20319;-68
2024/04/18 00:08:52;;;;;;;64.73;10.47;;;;;;;;;;5356965;26;20468;-67
2024/04/18 00:11:18;;;;;;;64.80;10.87;;;;;;;;;;5358460;26;20539;-68
2024/04/18 00:13:46;;;;;;;64.80;11.53;;;;;;;;;;5348385;26;20598;-68
2024/04/18 00:16:12;;;;;;;62.50;9.00;;;;;;;;;;5354488;26;20547;-67
2024/04/18 00:18:44;;;;;;;63.80;9.37;;;;;;;;;;5356048;26;20532;-68
2024/04/18 00:21:10;;;;;;;62.80;9.50;;;;;;;;;;5350490;26;20522;-68
2024/04/18 00:23:39;;;;;;;63.30;9.37;;;;;;;;;;5356151;26;20468;-68
2024/04/18 00:26:05;;;;;;;65.00;10.13;;;;;;;;;;5355219;26;20579;-68
2024/04/18 00:28:34;;;;;;;63.27;10.20;;;;;;;;;;5356062;26;20572;-68
2024/04/18 00:31:00;;;;;;;61.67;8.50;;;;;;;;;;5354992;26;20539;-68
2024/04/18 00:33:29;;;;;;;64.23;10.60;;;;;;;;;;5355242;26;20532;-68
2024/04/18 00:35:57;;;;;;;62.63;9.67;;;;;;;;;;5354977;26;20540;-68
2024/04/18 00:38:26;;;;;;;66.43;10.30;;;;;;;;;;5355617;26;20539;-68
2024/04/18 00:40:52;;;;;;;62.87;9.13;;;;;;;;;;5353491;26;20484;-67
2024/04/18 00:43:21;;;;;;;62.37;9.90;;;;;;;;;;5354840;26;20544;-68
2024/04/18 00:45:48;;;;;;;64.03;10.40;;;;;;;;;;5355258;26;20963;-68
2024/04/18 00:48:16;;;;;;;63.63;9.83;;;;;;;;;;5355037;26;20479;-68
2024/04/18 00:50:43;;;;;;;62.30;9.23;;;;;;;;;;5354903;26;20579;-69
2024/04/18 00:53:14;;;;;;;62.63;9.30;;;;;;;;;;5354641;26;20528;-67
2024/04/18 00:55:41;;;;;;;63.30;10.17;;;;;;;;;;5342101;26;20475;-68
2024/04/18 00:58:11;;;;;;;61.50;9.27;;;;;;;;;;5355024;26;20484;-68
2024/04/18 01:00:37;;;;;;;65.33;9.50;;;;;;;;;;5352620;26;21014;-67
2024/04/18 01:03:06;;;;;;;63.80;10.03;;;;;;;;;;5355109;26;20464;-68
2024/04/18 01:05:35;;;;;;;63.47;9.83;;;;;;;;;;5354697;26;20464;-68
2024/04/18 01:08:01;;;;;;;63.47;8.80;;;;;;;;;;5355221;26;20601;-68
2024/04/18 01:10:32;;;;;;;62.70;9.20;;;;;;;;;;5354381;26;20997;-68
2024/04/18 01:12:59;;;;;;;64.73;10.83;;;;;;;;;;5355297;26;20483;-68
2024/04/18 01:15:28;;;;;;;61.70;9.37;;;;;;;;;;5355193;26;21023;-68
2024/04/18 01:17:55;;;;;;;62.93;9.37;;;;;;;;;;5355206;26;20475;-68
2024/04/18 01:20:24;;;;;;;62.23;8.37;;;;;;;;;;5354302;26;20487;-68
2024/04/18 01:22:50;;;;;;;61.53;9.00;;;;;;;;;;5354582;26;20550;-68
2024/04/18 01:25:19;;;;;;;61.87;8.70;;;;;;;;;;5354561;26;20638;-68
2024/04/18 01:27:47;;;;;;;65.77;9.47;;;;;;;;;;5354114;26;20487;-68
2024/04/18 01:30:16;;;;;;;63.00;9.40;;;;;;;;;;5354032;26;20543;-68
2024/04/18 01:32:42;;;;;;;65.53;10.38;;;;;;;;;;5354771;26;20554;-67
2024/04/18 01:35:11;;;;;;;65.67;9.40;;;;;;;;;;5354941;26;20283;-68
2024/04/18 01:37:37;;;;;;;62.80;9.18;;;;;;;;;;5339974;26;20585;-68
2024/04/18 01:40:06;;;;;;;65.93;9.53;;;;;;;;;;5354427;26;20249;-68
2024/04/18 01:42:32;;;;;;;63.00;9.03;;;;;;;;;;5344954;26;20631;-67
2024/04/18 01:45:04;;;;;;;65.57;9.70;;;;;;;;;;5354195;26;20491;-68
2024/04/18 01:47:30;;;;;;;61.90;9.60;;;;;;;;;;5354091;26;20532;-69
2024/04/18 01:49:59;;;;;;;62.47;9.17;;;;;;;;;;5352942;26;20583;-68
2024/04/18 01:52:25;;;;;;;64.07;9.80;;;;;;;;;;5348026;26;20484;-68
2024/04/18 01:54:53;;;;;;;63.33;9.37;;;;;;;;;;5354443;26;20533;-67
2024/04/18 01:57:20;;;;;;;64.80;9.43;;;;;;;;;;5353890;26;20597;-68
2024/04/18 01:59:48;;;;;;;66.17;11.03;;;;;;;;;;5353944;26;20607;-68
2024/04/18 02:02:18;;;;;;;62.47;8.83;;;;;;;;;;5351560;26;20487;-68
2024/04/18 02:04:46;;;;;;;64.40;10.33;;;;;;;;;;5352105;26;20476;-68
2024/04/18 02:07:12;;;;;;;65.53;11.40;;;;;;;;;;5352941;26;20576;-67
2024/04/18 02:09:41;;;;;;;67.40;11.60;;;;;;;;;;5353263;26;20513;-67
2024/04/18 02:12:07;;;;;;;65.10;10.27;;;;;;;;;;5349386;26;21050;-68
2024/04/18 02:14:36;;;;;;;62.07;9.80;;;;;;;;;;5353222;26;20483;-68
2024/04/18 02:17:02;;;;;;;64.77;10.57;;;;;;;;;;5356906;26;20614;-67
2024/04/18 02:19:34;;;;;;;72.67;9.23;;;;;;;;;;5356958;26;20591;-68
2024/04/18 02:22:00;;;;;;;65.13;10.80;;;;;;;;;;5353783;26;20535;-68
2024/04/18 02:24:28;;;;;;;65.47;11.10;;;;;;;;;;5357764;26;20531;-68
2024/04/18 02:26:55;;;;;;;65.17;10.20;;;;;;;;;;5356907;26;20481;-67
2024/04/18 02:29:23;;;;;;;64.70;9.70;;;;;;;;;;5357358;26;20869;-68
2024/04/18 02:31:49;;;;;;;64.37;9.93;;;;;;;;;;5356252;26;20475;-67
2024/04/18 02:34:18;;;;;;;63.03;10.43;;;;;;;;;;5355858;26;21046;-68
2024/04/18 02:36:47;;;;;;;62.70;10.03;;;;;;;;;;5355307;26;20532;-68
2024/04/18 02:39:16;;;;;;;66.03;9.63;;;;;;;;;;5356736;26;20472;-68
2024/04/18 02:41:42;;;;;;;69.73;11.57;;;;;;;;;;5355462;26;20491;-68
2024/04/18 02:44:10;;;;;;;64.20;10.67;;;;;;;;;;5356925;26;20483;-68
2024/04/18 02:46:36;;;;;;;66.53;11.50;;;;;;;;;;5352321;26;20499;-68
2024/04/18 02:49:05;;;;;;;65.93;11.47;;;;;;;;;;5355466;26;20479;-68
2024/04/18 02:51:32;;;;;;;66.20;11.90;;;;;;;;;;5354894;26;20563;-68
2024/04/18 02:54:03;;;;;;;65.67;11.70;;;;;;;;;;5356124;26;20483;-67
2024/04/18 02:56:29;;;;;;;66.63;11.30;;;;;;;;;;5351611;26;20491;-68
2024/04/18 02:58:58;;;;;;;65.27;11.90;;;;;;;;;;5349637;26;20836;-68
2024/04/18 03:01:24;;;;;;;66.07;11.47;;;;;;;;;;5347888;26;20485;-67
2024/04/18 03:03:53;;;;;;;62.93;9.53;;;;;;;;;;5356548;26;20527;-68
2024/04/18 03:06:19;;;;;;;65.60;10.40;;;;;;;;;;5355809;26;20568;-68
2024/04/18 03:08:47;;;;;;;65.27;10.40;;;;;;;;;;5356146;26;20476;-68
2024/04/18 03:11:16;;;;;;;67.57;11.27;;;;;;;;;;5353430;26;20556;-68
2024/04/18 03:13:45;;;;;;;66.03;11.20;;;;;;;;;;5342116;26;20479;-68
2024/04/18 03:16:14;;;;;;;63.93;10.50;;;;;;;;;;5355770;26;20528;-68
2024/04/18 03:18:44;;;;;;;61.60;9.00;;;;;;;;;;5356589;26;20912;-68
2024/04/18 03:21:10;;;;;;;64.77;10.53;;;;;;;;;;5357109;26;20575;-68
2024/04/18 03:23:39;;;;;;;63.97;10.30;;;;;;;;;;5343100;26;20571;-68
2024/04/18 03:26:05;;;;;;;64.20;10.17;;;;;;;;;;5356579;26;20564;-68
2024/04/18 03:28:37;;;;;;;61.80;8.60;;;;;;;;;;5357501;26;20484;-68
2024/04/18 03:31:03;;;;;;;66.40;11.10;;;;;;;;;;5356290;26;20486;-68
2024/04/18 03:33:33;;;;;;;62.87;9.17;;;;;;;;;;5357083;26;20857;-67
2024/04/18 03:36:02;;;;;;;63.03;9.20;;;;;;;;;;5356886;26;20536;-68
2024/04/18 03:38:30;;;;;;;63.37;8.17;;;;;;;;;;5354831;26;20567;-67
2024/04/18 03:41:00;;;;;;;61.20;8.40;;;;;;;;;;5356965;26;20475;-67
2024/04/18 03:43:29;;;;;;;62.50;8.10;;;;;;;;;;5351982;26;20580;-68
2024/04/18 03:46:01;;;;;;;62.07;8.43;;;;;;;;;;5356771;26;20475;-67
2024/04/18 03:48:30;;;;;;;62.87;8.03;;;;;;;;;;5357798;26;20483;-67
2024/04/18 03:50:56;;;;;;;61.30;7.10;;;;;;;;;;5345986;26;20475;-67
2024/04/18 03:53:25;;;;;;;60.30;7.87;;;;;;;;;;5350142;26;20535;-67
2024/04/18 03:55:51;;;;;;;59.60;7.43;;;;;;;;;;5357272;26;20522;-67
2024/04/18 03:58:20;;;;;;;60.00;7.10;;;;;;;;;;5357242;26;20666;-67
2024/04/18 04:00:47;;;;;;;62.80;7.97;;;;;;;;;;5344348;26;20479;-68
2024/04/18 04:03:18;;;;;;;60.40;7.67;;;;;;;;;;5347591;26;20566;-67
2024/04/18 04:05:44;;;;;;;62.30;7.50;;;;;;;;;;5357021;26;20575;-68
2024/04/18 04:08:13;;;;;;;61.60;8.13;;;;;;;;;;5356950;26;20551;-68
2024/04/18 04:10:39;;;;;;;61.30;8.13;;;;;;;;;;5356956;26;20588;-68
2024/04/18 04:13:08;;;;;;;63.27;8.50;;;;;;;;;;5348442;26;20880;-68
2024/04/18 04:15:35;;;;;;;61.90;8.30;;;;;;;;;;5357469;26;20472;-67
2024/04/18 04:18:04;;;;;;;61.27;7.10;;;;;;;;;;5356517;26;20666;-68
2024/04/18 04:20:33;;;;;;;60.67;8.17;;;;;;;;;;5356455;26;20484;-68
2024/04/18 04:23:02;;;;;;;62.57;8.70;;;;;;;;;;5352297;26;20479;-67
2024/04/18 04:25:28;;;;;;;64.17;8.87;;;;;;;;;;5356094;26;20468;-68
2024/04/18 04:27:57;;;;;;;61.23;7.63;;;;;;;;;;5355501;26;20874;-68
2024/04/18 04:30:23;;;;;;;62.93;8.63;;;;;;;;;;5356765;26;20468;-67
2024/04/18 04:32:51;;;;;;;60.90;7.67;;;;;;;;;;5352890;26;20480;-68
2024/04/18 04:35:18;;;;;;;61.20;7.93;;;;;;;;;;5350437;26;20859;-68
2024/04/18 04:37:49;;;;;;;63.10;8.23;;;;;;;;;;5355533;26;20548;-67
2024/04/18 04:40:15;;;;;;;62.60;8.93;;;;;;;;;;5356100;26;20807;-67
2024/04/18 04:42:44;;;;;;;61.17;8.53;;;;;;;;;;5351105;26;20475;-68
2024/04/18 04:45:10;;;;;;;61.83;7.47;;;;;;;;;;5356084;26;20536;-68
2024/04/18 04:47:39;;;;;;;61.60;7.90;;;;;;;;;;5356297;26;20483;-68
2024/04/18 04:50:05;;;;;;;61.90;8.10;;;;;;;;;;5354560;26;20556;-67
2024/04/18 04:52:34;;;;;;;62.50;9.07;;;;;;;;;;5343582;26;20485;-68
2024/04/18 04:55:03;;;;;;;60.63;7.53;;;;;;;;;;5355502;26;20468;-67
2024/04/18 04:57:31;;;;;;;61.00;7.73;;;;;;;;;;5354963;26;20569;-68
2024/04/18 04:59:58;;;;;;;61.73;7.40;;;;;;;;;;5354409;26;20476;-68
2024/04/18 05:02:26;;;;;;;60.90;8.10;;;;;;;;;;5350830;26;20898;-67
2024/04/18 05:04:53;;;;;;;61.30;7.77;;;;;;;;;;5355150;26;20479;-68
2024/04/18 05:07:21;;;;;;;61.17;8.33;;;;;;;;;;5354729;26;20499;-67
2024/04/18 05:09:52;;;;;;;66.20;8.07;;;;;;;;;;5341730;26;20593;-68
2024/04/18 05:12:23;;;;;;;63.07;9.00;;;;;;;;;;5344742;26;20483;-67
2024/04/18 05:14:50;;;;;;;62.17;9.07;;;;;;;;;;5355204;26;20468;-68
2024/04/18 05:17:20;;;;;;;62.20;8.70;;;;;;;;;;5354835;26;20479;-68
2024/04/18 05:19:46;;;;;;;62.07;8.13;;;;;;;;;;5355444;26;20808;-68
2024/04/18 05:22:14;;;;;;;65.37;9.00;;;;;;;;;;5351193;26;20475;-67
2024/04/18 05:24:41;;;;;;;61.73;8.77;;;;;;;;;;5346489;26;20472;-68
2024/04/18 05:27:09;;;;;;;62.90;8.73;;;;;;;;;;5354102;26;20543;-68
2024/04/18 05:32:26;;;;;;;61.80;9.13;;;;;;;;;;5356399;26;20510;-67
2024/04/18 05:34:54;;;;;;;67.13;9.60;;;;;;;;;;5355154;26;20531;-68
2024/04/18 05:37:23;;;;;;;62.67;9.20;;;;;;;;;;5353984;26;20575;-69
2024/04/18 05:39:52;;;;;;;61.40;8.00;;;;;;;;;;5340289;26;20480;-68
2024/04/18 05:42:21;;;;;;;63.93;8.93;;;;;;;;;;5354311;26;21138;-68
2024/04/18 05:44:52;;;;;;;61.60;8.70;;;;;;;;;;5354711;26;20480;-68
2024/04/18 05:47:21;;;;;;;62.87;9.30;;;;;;;;;;5356395;26;20483;-68
2024/04/18 05:49:50;;;;;;;63.33;9.53;;;;;;;;;;5358032;26;20558;-68
2024/04/18 05:52:19;;;;;;;62.70;9.43;;;;;;;;;;5358356;26;20584;-68
2024/04/18 05:54:48;;;;;;;61.10;8.17;;;;;;;;;;5357712;26;20476;-67
2024/04/18 05:57:16;;;;;;;63.97;10.00;;;;;;;;;;5357606;26;20483;-67
2024/04/18 05:59:45;;;;;;;61.57;7.87;;;;;;;;;;5358421;26;20595;-68
2024/04/18 06:02:17;;;;;;;63.40;9.00;;;;;;;;;;5358003;26;21003;-68
2024/04/18 06:04:45;;;;;;;61.03;8.30;;;;;;;;;;5358462;26;20475;-68
2024/04/18 06:07:14;;;;;;;62.27;9.40;;;;;;;;;;5357037;26;20487;-67
2024/04/18 06:09:43;;;;;;;63.77;9.93;;;;;;;;;;5358068;26;20475;-68
2024/04/18 06:12:12;;;;;;;62.47;9.63;;;;;;;;;;5358153;26;20483;-68
2024/04/18 06:14:40;;;;;;;61.83;9.00;;;;;;;;;;5357350;26;20524;-67
2024/04/18 06:17:09;;;;;;;61.57;8.27;;;;;;;;;;5357511;26;20539;-68
2024/04/18 06:19:41;;;;;;;59.90;7.37;;;;;;;;;;5357997;26;20656;-68
2024/04/18 06:22:09;;;;;;;61.70;7.63;;;;;;;;;;5358292;26;20514;-68
2024/04/18 06:24:39;;;;;;;62.10;8.80;;;;;;;;;;5357382;26;20598;-68
2024/04/18 06:27:05;;;;;;;60.10;6.83;;;;;;;;;;5357016;26;20487;-68
2024/04/18 06:29:34;;;;;;;61.77;8.20;;;;;;;;;;5357244;26;20471;-68
2024/04/18 06:32:02;;;;;;;60.87;7.07;;;;;;;;;;5357630;26;20575;-68
2024/04/18 06:34:31;;;;;;;59.87;6.57;;;;;;;;;;5357790;26;20487;-68
2024/04/18 06:37:05;;;;;;;61.43;7.90;;;;;;;;;;5356900;26;20499;-69
2024/04/18 06:39:34;;;;;;;60.13;7.27;;;;;;;;;;5357427;26;20584;-68
2024/04/18 06:42:03;;;;;;;64.00;7.47;;;;;;;;;;5357845;26;20483;-69
2024/04/18 06:44:32;;;;;;;60.00;7.57;;;;;;;;;;5357092;26;20468;-68
2024/04/18 06:47:00;;;;;;;59.47;6.47;;;;;;;;;;5356663;26;20475;-68
2024/04/18 06:49:29;;;;;;;59.17;6.40;;;;;;;;;;5356907;26;20552;-68
2024/04/18 06:51:58;;;;;;;59.23;6.43;;;;;;;;;;5356592;26;20595;-68
2024/04/18 06:54:29;;;;;;;59.60;6.50;;;;;;;;;;5356268;26;20598;-68
2024/04/18 06:56:58;;;;;;;59.53;6.70;;;;;;;;;;5356241;26;20648;-68
2024/04/18 06:59:24;;;;;;;61.07;7.40;;;;;;;;;;5355701;26;20590;-67
2024/04/18 07:01:53;;;;;;;62.37;7.43;;;;;;;;;;5356111;26;20471;-68
2024/04/18 07:04:21;;;;;;;61.37;7.70;;;;;;;;;;5356781;26;20467;-68
2024/04/18 07:06:50;;;;;;;62.93;7.97;;;;;;;;;;5355149;26;20491;-68
2024/04/18 07:09:19;;;;;;;61.80;7.73;;;;;;;;;;5355468;26;20581;-68
2024/04/18 07:11:50;;;;;;;59.43;6.50;;;;;;;;;;5356549;26;20491;-68
2024/04/18 07:14:19;;;;;;;60.47;7.37;;;;;;;;;;5356809;26;20468;-68
2024/04/18 07:16:48;;;;;;;58.90;6.70;;;;;;;;;;5355405;26;20580;-68
2024/04/18 07:19:14;;;;;;;60.50;6.33;;;;;;;;;;5355842;26;20479;-68
2024/04/18 07:21:43;;;;;;;62.33;8.13;;;;;;;;;;5355005;26;21040;-69
2024/04/18 07:24:11;;;;;;;58.00;5.20;;;;;;;;;;5356917;26;20570;-68
2024/04/18 07:26:41;;;;;;;59.23;6.40;;;;;;;;;;5356673;26;20536;-68
2024/04/18 07:29:12;;;;;;;58.97;6.10;;;;;;;;;;5356188;26;20531;-68
2024/04/18 07:31:41;;;;;;;58.40;5.87;;;;;;;;;;5355905;26;20471;-68
2024/04/18 07:34:07;;;;;;;59.67;6.80;;;;;;;;;;5355102;26;20471;-68
2024/04/18 07:36:36;;;;;;;61.80;6.20;;;;;;;;;;5351880;26;20491;-68
2024/04/18 07:39:04;;;;;;;59.67;6.40;;;;;;;;;;5354732;26;20528;-68
2024/04/18 07:41:33;;;;;;;59.80;7.20;;;;;;;;;;5354953;26;21274;-68
2024/04/18 07:44:02;;;;;;;60.57;6.40;;;;;;;;;;5355518;26;20621;-68
2024/04/18 07:46:33;;;;;;;60.57;7.40;;;;;;;;;;5353843;26;20499;-68
2024/04/18 07:49:02;;;;;;;62.30;7.90;;;;;;;;;;5341187;26;20491;-68
2024/04/18 07:51:31;;;;;;;61.77;7.57;;;;;;;;;;5354487;26;20514;-68
2024/04/18 07:54:00;;;;;;;59.47;6.47;;;;;;;;;;5353886;26;20610;-69
2024/04/18 07:56:29;;;;;;;59.30;5.63;;;;;;;;;;5354114;26;21038;-68
2024/04/18 07:58:58;;;;;;;59.17;6.63;;;;;;;;;;5340084;26;20498;-69
2024/04/18 08:01:26;;;;;;;59.43;6.60;;;;;;;;;;5353979;26;20488;-68
2024/04/18 08:03:58;;;;;;;59.50;6.20;;;;;;;;;;5355875;26;20483;-68
2024/04/18 08:06:26;;;;;;;60.33;6.80;;;;;;;;;;5355523;26;20475;-68
2024/04/18 08:08:55;;;;;;;60.07;6.57;;;;;;;;;;5356052;26;20579;-68
2024/04/18 08:11:24;;;;;;;61.60;6.33;;;;;;;;;;5355687;26;20483;-68
2024/04/18 08:13:52;;;;;;;60.17;7.53;;;;;;;;;;5355298;26;20579;-68
2024/04/18 08:16:21;;;;;;;60.47;7.17;;;;;;;;;;5355007;26;20616;-68
2024/04/18 08:18:50;;;;;;;59.87;7.00;;;;;;;;;;5355570;26;20511;-68
2024/04/18 08:21:19;;;;;;;62.10;7.50;;;;;;;;;;5355808;26;20577;-68
2024/04/18 08:23:51;;;;;;;60.70;6.97;;;;;;;;;;5356216;26;20532;-69
2024/04/18 08:26:20;;;;;;;61.07;7.10;;;;;;;;;;5354986;26;20484;-68
2024/04/18 08:28:49;;;;;;;63.67;7.70;;;;;;;;;;5354621;26;20597;-68
2024/04/18 08:31:17;;;;;;;62.20;7.03;;;;;;;;;;5353969;26;20590;-68
2024/04/18 08:33:47;;;;;;;61.97;7.50;;;;;;;;;;5354213;26;21144;-69
2024/04/18 08:36:15;;;;;;;60.80;7.23;;;;;;;;;;5352737;26;20900;-68
2024/04/18 08:38:47;;;;;;;61.10;7.43;;;;;;;;;;5353622;26;20500;-68
2024/04/18 08:41:16;;;;;;;64.40;8.37;;;;;;;;;;5353159;26;20560;-68
2024/04/18 08:43:45;;;;;;;60.43;7.73;;;;;;;;;;5352448;26;20532;-68
2024/04/18 08:46:14;;;;;;;62.07;7.00;;;;;;;;;;5353071;26;20531;-69
2024/04/18 08:48:44;;;;;;;60.47;7.80;;;;;;;;;;5354070;26;20487;-68
2024/04/18 08:51:14;;;;;;;59.70;6.90;;;;;;;;;;5352847;26;20556;-68
2024/04/18 08:53:42;;;;;;;60.50;7.63;;;;;;;;;;5353364;26;20479;-69
2024/04/18 08:56:16;;;;;;;60.00;7.17;;;;;;;;;;5353083;26;20480;-68
2024/04/18 08:58:45;;;;;;;59.27;6.50;;;;;;;;;;5352498;26;20479;-69
2024/04/18 09:01:14;;;;;;;60.03;7.47;;;;;;;;;;5352458;26;20543;-68
2024/04/18 09:03:43;;;;;;;60.20;7.20;;;;;;;;;;5353425;26;20577;-68
2024/04/18 09:06:16;;;;;;;60.10;6.83;;;;;;;;;;5352904;26;20471;-68
2024/04/18 09:08:45;;;;;;;61.07;7.60;;;;;;;;;;5351879;26;20483;-68
2024/04/18 09:11:16;;;;;;;60.73;6.43;;;;;;;;;;5351852;26;20574;-68
2024/04/18 09:13:46;;;;;;;60.60;6.80;;;;;;;;;;5351817;26;20479;-69
2024/04/18 09:16:15;;;;;;;59.67;6.57;;;;;;;;;;5352210;26;20508;-68
2024/04/18 09:18:43;;;;;;;59.67;6.90;;;;;;;;;;5350986;26;20491;-69
2024/04/18 09:21:13;;;;;;;61.47;7.27;;;;;;;;;;5351424;26;20471;-69
2024/04/18 09:23:42;;;;;;;58.27;5.70;;;;;;;;;;5354728;26;20488;-68
2024/04/18 09:26:11;;;;;;;61.40;6.67;;;;;;;;;;5353553;26;20579;-69
2024/04/18 09:28:42;;;;;;;63.57;6.20;;;;;;;;;;5354390;26;21139;-68
2024/04/18 09:31:12;;;;;;;59.70;6.83;;;;;;;;;;5354077;26;21014;-69
2024/04/18 09:33:40;;;;;;;65.20;6.90;;;;;;;;;;5353231;26;21134;-69
2024/04/18 09:36:09;;;;;;;59.90;7.30;;;;;;;;;;5353325;26;20491;-68
2024/04/18 09:38:41;;;;;;;58.20;5.47;;;;;;;;;;5354045;26;20594;-68
2024/04/18 09:41:14;;;;;;;58.77;5.60;;;;;;;;;;5354325;26;20625;-69
2024/04/18 09:43:47;;;;;;;59.40;5.40;;;;;;;;;;5353891;26;20559;-69
2024/04/18 09:46:17;;;;;;;60.30;4.87;;;;;;;;;;5352693;26;20487;-68
2024/04/18 09:48:46;;;;;;;58.13;5.30;;;;;;;;;;5352594;26;20857;-69
2024/04/18 09:51:16;;;;;;;59.27;5.47;;;;;;;;;;5353024;26;20479;-69
2024/04/18 09:53:46;;;;;;;58.43;5.83;;;;;;;;;;5353466;26;20647;-69
2024/04/18 09:56:17;;;;;;;60.40;5.97;;;;;;;;;;5353139;26;20471;-69
2024/04/18 09:58:49;;;;;;;58.63;5.80;;;;;;;;;;5352999;26;20528;-68
2024/04/18 10:01:18;;;;;;;59.53;6.20;;;;;;;;;;5353232;26;20578;-68
2024/04/18 10:03:47;;;;;;;60.33;7.00;;;;;;;;;;5352056;26;20480;-68
2024/04/18 10:06:17;;;;;;;59.10;5.43;;;;;;;;;;5352014;26;20495;-68
2024/04/18 10:08:50;;;;;;;59.47;6.07;;;;;;;;;;5352944;26;20589;-68
2024/04/18 10:11:19;;;;;;;58.80;5.70;;;;;;;;;;5353833;26;20475;-68
2024/04/18 10:13:49;;;;;;;59.80;5.50;;;;;;;;;;5355132;26;20561;-68
2024/04/18 10:16:19;;;;;;;58.20;5.23;;;;;;;;;;5354937;26;20479;-68
2024/04/18 10:18:48;;;;;;;60.10;5.90;;;;;;;;;;5355795;26;20780;-68
2024/04/18 10:21:17;;;;;;;60.10;7.27;;;;;;;;;;5353181;26;21002;-67
2024/04/18 10:23:49;;;;;;;59.00;6.10;;;;;;;;;;5355195;26;20577;-68
2024/04/18 10:26:18;;;;;;;59.30;5.70;;;;;;;;;;5355757;26;20527;-68
2024/04/18 10:28:50;;;;;;;57.60;4.97;;;;;;;;;;5356433;26;20460;-68
2024/04/18 10:31:19;;;;;;;58.87;5.20;;;;;;;;;;5358013;26;20532;-67
2024/04/18 10:33:49;;;;;;;58.13;4.90;;;;;;;;;;5356505;26;20495;-68
2024/04/18 10:36:18;;;;;;;58.37;5.47;;;;;;;;;;5355193;26;20640;-68
2024/04/18 10:38:48;;;;;;;58.40;5.77;;;;;;;;;;5354552;26;20567;-68
2024/04/18 10:41:17;;;;;;;58.97;5.23;;;;;;;;;;5353722;26;20878;-68
2024/04/18 10:43:46;;;;;;;60.50;5.60;;;;;;;;;;5353931;26;20479;-68
2024/04/18 10:46:19;;;;;;;60.97;5.20;;;;;;;;;;5353892;26;20491;-69
2024/04/18 10:48:48;;;;;;;60.93;5.80;;;;;;;;;;5353665;26;20483;-68
2024/04/18 10:51:19;;;;;;;59.70;5.80;;;;;;;;;;5353347;26;20483;-68
2024/04/18 10:53:48;;;;;;;57.93;5.20;;;;;;;;;;5353131;26;20743;-68
2024/04/18 10:56:18;;;;;;;58.60;5.17;;;;;;;;;;5353731;26;20571;-68
2024/04/18 10:58:46;;;;;;;58.73;5.23;;;;;;;;;;5352842;26;20491;-68
2024/04/18 11:01:22;;;;;;;58.90;5.87;;;;;;;;;;5352405;26;20915;-68
2024/04/18 11:03:53;;;;;;;59.47;4.73;;;;;;;;;;5352154;26;21071;-68
2024/04/18 11:06:21;;;;;;;57.80;4.17;;;;;;;;;;5350465;26;20524;-69
2024/04/18 11:08:51;;;;;;;58.37;4.37;;;;;;;;;;5350187;26;20593;-69
2024/04/18 11:11:24;;;;;;;65.50;5.60;;;;;;;;;;5349559;26;21029;-68
2024/04/18 11:13:53;;;;;;;58.00;4.27;;;;;;;;;;5351019;26;20531;-69
2024/04/18 11:16:25;;;;;;;58.00;4.93;;;;;;;;;;5350837;26;20483;-69
2024/04/18 11:18:54;;;;;;;58.30;5.27;;;;;;;;;;5349491;26;20476;-68
2024/04/18 11:21:23;;;;;;;58.17;4.33;;;;;;;;;;5350901;26;20484;-69
2024/04/18 11:23:53;;;;;;;58.70;5.10;;;;;;;;;;5350630;26;20498;-69
2024/04/18 11:26:22;;;;;;;59.60;5.67;;;;;;;;;;5351262;26;20487;-68
2024/04/18 11:28:51;;;;;;;58.80;5.33;;;;;;;;;;5346260;26;20587;-69
2024/04/18 11:31:20;;;;;;;58.90;5.23;;;;;;;;;;5352090;26;20471;-68
2024/04/18 11:33:52;;;;;;;59.17;5.47;;;;;;;;;;5346180;26;20479;-68
2024/04/18 11:36:21;;;;;;;60.73;6.23;;;;;;;;;;5351414;26;20483;-68
2024/04/18 11:38:50;;;;;;;58.30;5.10;;;;;;;;;;5352256;26;20524;-68
2024/04/18 11:41:19;;;;;;;59.63;5.50;;;;;;;;;;5350954;26;20998;-69
2024/04/18 11:43:48;;;;;;;58.50;5.30;;;;;;;;;;5350015;26;20615;-69
2024/04/18 11:46:17;;;;;;;58.80;5.30;;;;;;;;;;5349243;26;20526;-68
2024/04/18 11:48:45;;;;;;;62.13;5.97;;;;;;;;;;5349306;26;20480;-69
2024/04/18 11:51:17;;;;;;;57.10;4.00;;;;;;;;;;5350233;26;20484;-68
2024/04/18 11:53:45;;;;;;;58.30;4.40;;;;;;;;;;5350519;26;21006;-69
2024/04/18 11:56:14;;;;;;;56.67;4.00;;;;;;;;;;5349658;26;20635;-68
2024/04/18 11:58:43;;;;;;;57.63;4.17;;;;;;;;;;5351534;26;20761;-68
2024/04/18 12:01:13;;;;;;;59.20;4.60;;;;;;;;;;5350387;26;20563;-68
2024/04/18 12:03:43;;;;;;;58.13;4.40;;;;;;;;;;5349969;26;20518;-69
2024/04/18 12:06:13;;;;;;;58.00;4.20;;;;;;;;;;5349655;26;20467;-69
2024/04/18 12:08:44;;;;;;;58.20;4.63;;;;;;;;;;5349736;26;20476;-69
2024/04/18 12:11:13;;;;;;;57.30;3.80;;;;;;;;;;5349734;26;20464;-68
2024/04/18 12:13:42;;;;;;;57.33;3.90;;;;;;;;;;5350030;26;20483;-69
2024/04/18 12:16:11;;;;;;;57.00;3.53;;;;;;;;;;5335847;26;20915;-69
2024/04/18 12:18:39;;;;;;;56.57;3.73;;;;;;;;;;5347927;26;20522;-69
2024/04/18 12:21:08;;;;;;;56.50;3.37;;;;;;;;;;5348255;26;20561;-69
2024/04/18 12:23:42;;;;;;;57.80;4.37;;;;;;;;;;5348013;26;21123;-68
2024/04/18 12:26:13;;;;;;;56.80;3.77;;;;;;;;;;5346830;26;20471;-68
2024/04/18 12:28:42;;;;;;;57.10;3.60;;;;;;;;;;5347115;26;20525;-69
2024/04/18 12:31:11;;;;;;;57.93;3.87;;;;;;;;;;5334172;26;20491;-69
2024/04/18 12:33:40;;;;;;;57.13;3.50;;;;;;;;;;5348479;26;20490;-69
2024/04/18 12:36:11;;;;;;;56.20;3.27;;;;;;;;;;5348229;26;20617;-69
2024/04/18 12:38:40;;;;;;;56.33;3.10;;;;;;;;;;5347674;26;20474;-69
2024/04/18 12:41:09;;;;;;;58.60;4.43;;;;;;;;;;5348176;26;20484;-69
2024/04/18 12:43:38;;;;;;;57.30;4.20;;;;;;;;;;5348353;26;20475;-69
2024/04/18 12:46:07;;;;;;;56.20;3.57;;;;;;;;;;5348709;26;20502;-69
2024/04/18 12:48:35;;;;;;;56.57;3.40;;;;;;;;;;5348966;26;20602;-69
2024/04/18 12:51:05;;;;;;;57.43;3.53;;;;;;;;;;5349832;26;20592;-69
2024/04/18 12:53:37;;;;;;;56.80;3.40;;;;;;;;;;5348563;26;20830;-69
2024/04/18 12:56:06;;;;;;;56.60;3.20;;;;;;;;;;5348280;26;20718;-69
2024/04/18 12:58:35;;;;;;;58.03;4.27;;;;;;;;;;5348334;26;20889;-68
2024/04/18 13:01:07;;;;;;;56.80;3.10;;;;;;;;;;5347374;26;20561;-69
2024/04/18 13:03:35;;;;;;;56.50;3.40;;;;;;;;;;5347598;26;20573;-68
2024/04/18 13:06:04;;;;;;;56.40;3.40;;;;;;;;;;5346957;26;20589;-69
2024/04/18 13:08:33;;;;;;;56.77;3.63;;;;;;;;;;5347563;26;20952;-69
2024/04/18 13:11:02;;;;;;;56.67;3.13;;;;;;;;;;5347642;26;20480;-69
2024/04/18 13:13:30;;;;;;;56.80;3.27;;;;;;;;;;5348363;26;20560;-69
2024/04/18 13:15:59;;;;;;;56.07;3.20;;;;;;;;;;5347795;26;20562;-69
2024/04/18 13:18:30;;;;;;;56.77;3.70;;;;;;;;;;5348054;26;20625;-69
2024/04/18 13:20:59;;;;;;;56.27;3.30;;;;;;;;;;5348625;26;20520;-69
2024/04/18 13:23:28;;;;;;;56.67;3.37;;;;;;;;;;5347523;26;20586;-69
2024/04/18 13:25:59;;;;;;;57.50;3.73;;;;;;;;;;5347527;26;20590;-69
2024/04/18 13:28:28;;;;;;;58.60;3.50;;;;;;;;;;5349129;26;20536;-69
2024/04/18 13:30:56;;;;;;;56.97;3.50;;;;;;;;;;5349551;26;20492;-69
2024/04/18 13:33:25;;;;;;;57.87;3.50;;;;;;;;;;5348819;26;20892;-69
2024/04/18 13:35:57;;;;;;;57.07;3.40;;;;;;;;;;5348340;26;20619;-69
2024/04/18 13:38:26;;;;;;;56.40;3.03;;;;;;;;;;5347805;26;20480;-69
2024/04/18 13:40:54;;;;;;;56.90;3.07;;;;;;;;;;5347615;26;20476;-69
2024/04/18 13:43:24;;;;;;;57.07;3.30;;;;;;;;;;5347720;26;20484;-69
2024/04/18 13:45:53;;;;;;;56.17;2.73;;;;;;;;;;5346896;26;20871;-69
2024/04/18 13:48:22;;;;;;;57.00;3.20;;;;;;;;;;5346993;26;20487;-69
2024/04/18 13:50:52;;;;;;;56.67;2.83;;;;;;;;;;5347656;26;20477;-69
2024/04/18 13:53:23;;;;;;;59.93;3.30;;;;;;;;;;5350884;26;20467;-69
2024/04/18 13:55:52;;;;;;;58.27;4.20;;;;;;;;;;5350529;26;20559;-69
2024/04/18 13:58:22;;;;;;;57.03;3.20;;;;;;;;;;5350743;26;20487;-68
2024/04/18 14:00:48;;;;;;;56.57;3.10;;;;;;;;;;5350141;26;20475;-68
2024/04/18 14:03:19;;;;;;;56.67;3.30;;;;;;;;;;5349838;26;20475;-69
2024/04/18 14:05:48;;;;;;;56.20;2.57;;;;;;;;;;5349450;26;20772;-69
2024/04/18 14:08:17;;;;;;;56.80;3.23;;;;;;;;;;5351206;26;20605;-69
2024/04/18 14:10:48;;;;;;;56.03;2.80;;;;;;;;;;5353733;26;20590;-69
2024/04/18 14:13:15;;;;;;;55.97;2.70;;;;;;;;;;5340273;26;20475;-69
2024/04/18 14:18:48;;;;;;;58.10;2.90;;;;;;;;;;5352693;26;20483;-69
2024/04/18 14:18:48;;;;;;;57.20;3.10;;;;;;;;;;5352809;26;20605;-69
2024/04/18 14:21:17;;;;;;;56.10;2.87;;;;;;;;;;5353223;26;20460;-69
2024/04/18 14:23:46;;;;;;;56.77;3.20;;;;;;;;;;5353074;26;20487;-69
2024/04/18 14:26:17;;;;;;;55.63;2.90;;;;;;;;;;5352598;26;20559;-69
2024/04/18 14:28:46;;;;;;;55.70;2.90;;;;;;;;;;5352752;26;20472;-69
2024/04/18 14:31:15;;;;;;;58.30;2.87;;;;;;;;;;5352288;26;20471;-69
2024/04/18 14:33:44;;;;;;;58.40;3.43;;;;;;;;;;5354421;26;20511;-69
2024/04/18 14:36:13;;;;;;;56.47;2.80;;;;;;;;;;5353798;26;20475;-69
2024/04/18 14:38:41;;;;;;;58.60;2.93;;;;;;;;;;5354686;26;20598;-68
2024/04/18 14:41:10;;;;;;;56.80;3.03;;;;;;;;;;5353460;26;20526;-68